sensor_id;sensor_type;location;lat;lon;timestamp;temperature;humidity
74513;DHT22;62992;52.052;8.550;2023-06-22T00:01:29;18.50;99.90
74513;DHT22;62992;52.052;8.550;2023-06-22T00:04:13;18.60;99.90
74513;DHT22;62992;52.052;8.550;2023-06-22T00:06:57;18.50;99.90
74513;DHT22;62992;52.052;8.550;2023-06-22T00:09:41;18.50;99.90
74513;DHT22;62992;52.052;8.550;2023-06-22T00:12:26;18.50;99.90
74513;DHT22;62992;52.052;8.550;2023-06-22T00:15:10;18.50;99.90
74513;DHT22;62992;52.052;8.550;2023-06-22T00:17:54;18.50;99.90
74513;DHT22;62992;52.052;8.550;2023-06-22T00:20:38;18.40;99.90
74513;DHT22;62992;52.052;8.550;2023-06-22T00:23:22;18.40;99.90
74513;DHT22;62992;52.052;8.550;2023-06-22T00:26:07;18.50;99.90
74513;DHT22;62992;52.052;8.550;2023-06-22T00:28:51;18.50;99.90
74513;DHT22;62992;52.052;8.550;2023-06-22T00:31:35;18.40;99.90
74513;DHT22;62992;52.052;8.550;2023-06-22T00:34:19;18.50;99.90
74513;DHT22;62992;52.052;8.550;2023-06-22T00:37:03;18.60;99.90
74513;DHT22;62992;52.052;8.550;2023-06-22T00:39:48;18.50;99.90
74513;DHT22;62992;52.052;8.550;2023-06-22T00:42:32;18.40;99.90
74513;DHT22;62992;52.052;8.550;2023-06-22T00:45:17;18.30;99.90
74513;DHT22;62992;52.052;8.550;2023-06-22T00:48:01;18.20;99.90
74513;DHT22;62992;52.052;8.550;2023-06-22T00:50:45;18.30;99.90
74513;DHT22;62992;52.052;8.550;2023-06-22T00:53:34;18.30;99.90
74513;DHT22;62992;52.052;8.550;2023-06-22T00:56:18;18.30;99.90
74513;DHT22;62992;52.052;8.550;2023-06-22T00:59:03;18.20;99.90
74513;DHT22;62992;52.052;8.550;2023-06-22T01:01:47;18.20;99.90
74513;DHT22;62992;52.052;8.550;2023-06-22T01:04:35;18.20;99.90
74513;DHT22;62992;52.052;8.550;2023-06-22T01:10:07;18.30;99.90
74513;DHT22;62992;52.052;8.550;2023-06-22T01:12:53;18.40;99.90
74513;DHT22;62992;52.052;8.550;2023-06-22T01:15:42;18.40;99.90
74513;DHT22;62992;52.052;8.550;2023-06-22T01:18:28;18.40;99.90
74513;DHT22;62992;52.052;8.550;2023-06-22T01:21:14;18.30;99.90
74513;DHT22;62992;52.052;8.550;2023-06-22T01:24:04;18.30;99.90
74513;DHT22;62992;52.052;8.550;2023-06-22T01:29:42;18.20;99.90
74513;DHT22;62992;52.052;8.550;2023-06-22T01:32:31;18.20;99.90
74513;DHT22;62992;52.052;8.550;2023-06-22T01:35:17;18.20;99.90
74513;DHT22;62992;52.052;8.550;2023-06-22T01:38:01;18.20;99.90
74513;DHT22;62992;52.052;8.550;2023-06-22T01:40:46;18.10;99.90
74513;DHT22;62992;52.052;8.550;2023-06-22T01:43:30;18.10;99.90
74513;DHT22;62992;52.052;8.550;2023-06-22T01:46:15;18.20;99.90
74513;DHT22;62992;52.052;8.550;2023-06-22T01:48:59;18.20;99.90
74513;DHT22;62992;52.052;8.550;2023-06-22T01:51:43;18.30;99.90
74513;DHT22;62992;52.052;8.550;2023-06-22T01:54:27;18.20;99.90
74513;DHT22;62992;52.052;8.550;2023-06-22T01:57:11;18.30;99.90
74513;DHT22;62992;52.052;8.550;2023-06-22T02:00:00;18.30;99.90
74513;DHT22;62992;52.052;8.550;2023-06-22T02:02:51;18.30;99.90
74513;DHT22;62992;52.052;8.550;2023-06-22T02:05:48;18.30;99.90
74513;DHT22;62992;52.052;8.550;2023-06-22T02:08:49;18.30;99.90
74513;DHT22;62992;52.052;8.550;2023-06-22T02:11:34;18.20;99.90
74513;DHT22;62992;52.052;8.550;2023-06-22T02:14:19;18.20;99.90
74513;DHT22;62992;52.052;8.550;2023-06-22T02:17:03;18.10;99.90
74513;DHT22;62992;52.052;8.550;2023-06-22T02:19:48;18.10;99.90
74513;DHT22;62992;52.052;8.550;2023-06-22T02:22:32;18.10;99.90
74513;DHT22;62992;52.052;8.550;2023-06-22T02:25:16;18.20;99.90
74513;DHT22;62992;52.052;8.550;2023-06-22T02:28:01;18.10;99.90
74513;DHT22;62992;52.052;8.550;2023-06-22T02:30:45;18.20;99.90
74513;DHT22;62992;52.052;8.550;2023-06-22T02:33:30;18.10;99.90
74513;DHT22;62992;52.052;8.550;2023-06-22T02:36:14;18.10;99.90
74513;DHT22;62992;52.052;8.550;2023-06-22T02:38:58;18.10;99.90
74513;DHT22;62992;52.052;8.550;2023-06-22T02:41:44;18.10;99.90
74513;DHT22;62992;52.052;8.550;2023-06-22T02:44:29;18.10;99.90
74513;DHT22;62992;52.052;8.550;2023-06-22T02:47:13;18.10;99.90
74513;DHT22;62992;52.052;8.550;2023-06-22T02:49:57;18.10;99.90
74513;DHT22;62992;52.052;8.550;2023-06-22T02:52:41;18.10;99.90
74513;DHT22;62992;52.052;8.550;2023-06-22T02:55:26;18.20;99.90
74513;DHT22;62992;52.052;8.550;2023-06-22T02:58:10;18.10;99.90
74513;DHT22;62992;52.052;8.550;2023-06-22T03:00:54;18.10;99.90
74513;DHT22;62992;52.052;8.550;2023-06-22T03:03:38;18.10;99.90
74513;DHT22;62992;52.052;8.550;2023-06-22T03:06:23;18.00;99.90
74513;DHT22;62992;52.052;8.550;2023-06-22T03:09:07;17.90;99.90
74513;DHT22;62992;52.052;8.550;2023-06-22T03:11:51;17.90;99.90
74513;DHT22;62992;52.052;8.550;2023-06-22T03:14:36;17.90;99.90
74513;DHT22;62992;52.052;8.550;2023-06-22T03:17:20;17.80;99.90
74513;DHT22;62992;52.052;8.550;2023-06-22T03:20:05;17.80;99.90
74513;DHT22;62992;52.052;8.550;2023-06-22T03:22:55;17.70;99.90
74513;DHT22;62992;52.052;8.550;2023-06-22T03:25:40;17.70;99.90
74513;DHT22;62992;52.052;8.550;2023-06-22T03:28:24;17.70;99.90
74513;DHT22;62992;52.052;8.550;2023-06-22T03:31:08;17.60;99.90
74513;DHT22;62992;52.052;8.550;2023-06-22T03:33:53;17.60;99.90
74513;DHT22;62992;52.052;8.550;2023-06-22T03:36:37;17.70;99.90
74513;DHT22;62992;52.052;8.550;2023-06-22T03:39:21;17.70;99.90
74513;DHT22;62992;52.052;8.550;2023-06-22T03:42:06;17.70;99.90
74513;DHT22;62992;52.052;8.550;2023-06-22T03:44:50;17.80;99.90
74513;DHT22;62992;52.052;8.550;2023-06-22T03:47:34;17.80;99.90
74513;DHT22;62992;52.052;8.550;2023-06-22T03:50:18;17.80;99.90
74513;DHT22;62992;52.052;8.550;2023-06-22T03:53:04;17.90;99.90
74513;DHT22;62992;52.052;8.550;2023-06-22T03:55:49;17.90;99.90
74513;DHT22;62992;52.052;8.550;2023-06-22T03:58:34;18.00;99.90
74513;DHT22;62992;52.052;8.550;2023-06-22T04:01:20;18.00;99.90
74513;DHT22;62992;52.052;8.550;2023-06-22T04:04:05;18.00;99.90
74513;DHT22;62992;52.052;8.550;2023-06-22T04:06:49;18.00;99.90
74513;DHT22;62992;52.052;8.550;2023-06-22T04:09:33;18.00;99.90
74513;DHT22;62992;52.052;8.550;2023-06-22T04:12:17;18.00;99.90
74513;DHT22;62992;52.052;8.550;2023-06-22T04:15:01;18.00;99.90
74513;DHT22;62992;52.052;8.550;2023-06-22T04:17:46;18.00;99.90
74513;DHT22;62992;52.052;8.550;2023-06-22T04:20:31;18.00;99.90
74513;DHT22;62992;52.052;8.550;2023-06-22T04:23:15;18.00;99.90
74513;DHT22;62992;52.052;8.550;2023-06-22T04:25:59;18.00;99.90
74513;DHT22;62992;52.052;8.550;2023-06-22T04:28:43;18.10;99.90
74513;DHT22;62992;52.052;8.550;2023-06-22T04:31:34;18.20;99.90
74513;DHT22;62992;52.052;8.550;2023-06-22T04:34:21;18.20;99.90
74513;DHT22;62992;52.052;8.550;2023-06-22T04:37:06;18.30;99.90
74513;DHT22;62992;52.052;8.550;2023-06-22T04:39:50;18.40;99.90
74513;DHT22;62992;52.052;8.550;2023-06-22T04:42:34;18.40;99.90
74513;DHT22;62992;52.052;8.550;2023-06-22T04:45:20;18.40;99.90
74513;DHT22;62992;52.052;8.550;2023-06-22T04:48:05;18.50;99.90
74513;DHT22;62992;52.052;8.550;2023-06-22T04:50:49;18.50;99.90
74513;DHT22;62992;52.052;8.550;2023-06-22T04:53:33;18.50;99.90
74513;DHT22;62992;52.052;8.550;2023-06-22T04:56:17;18.50;99.90
74513;DHT22;62992;52.052;8.550;2023-06-22T04:59:02;18.50;99.90
74513;DHT22;62992;52.052;8.550;2023-06-22T05:01:50;18.50;99.90
74513;DHT22;62992;52.052;8.550;2023-06-22T05:04:35;18.60;99.90
74513;DHT22;62992;52.052;8.550;2023-06-22T05:07:22;18.70;99.90
74513;DHT22;62992;52.052;8.550;2023-06-22T05:10:10;18.80;99.90
74513;DHT22;62992;52.052;8.550;2023-06-22T05:12:55;18.80;99.90
74513;DHT22;62992;52.052;8.550;2023-06-22T05:15:39;18.80;99.90
74513;DHT22;62992;52.052;8.550;2023-06-22T05:18:23;18.90;99.90
74513;DHT22;62992;52.052;8.550;2023-06-22T05:21:07;18.90;99.90
74513;DHT22;62992;52.052;8.550;2023-06-22T05:23:52;19.00;99.90
74513;DHT22;62992;52.052;8.550;2023-06-22T05:26:36;19.10;99.90
74513;DHT22;62992;52.052;8.550;2023-06-22T05:29:21;19.10;99.90
74513;DHT22;62992;52.052;8.550;2023-06-22T05:32:06;19.20;99.90
74513;DHT22;62992;52.052;8.550;2023-06-22T05:34:50;19.20;99.90
74513;DHT22;62992;52.052;8.550;2023-06-22T05:37:34;19.20;99.90
74513;DHT22;62992;52.052;8.550;2023-06-22T05:40:18;19.40;99.90
74513;DHT22;62992;52.052;8.550;2023-06-22T05:43:03;19.70;99.90
74513;DHT22;62992;52.052;8.550;2023-06-22T05:45:47;19.90;99.90
74513;DHT22;62992;52.052;8.550;2023-06-22T05:48:31;20.10;99.90
74513;DHT22;62992;52.052;8.550;2023-06-22T05:51:15;20.00;99.90
74513;DHT22;62992;52.052;8.550;2023-06-22T05:53:59;20.30;99.90
74513;DHT22;62992;52.052;8.550;2023-06-22T05:56:44;20.40;99.90
74513;DHT22;62992;52.052;8.550;2023-06-22T05:59:28;20.80;99.90
74513;DHT22;62992;52.052;8.550;2023-06-22T06:02:12;20.80;99.90
74513;DHT22;62992;52.052;8.550;2023-06-22T06:04:56;20.70;99.90
74513;DHT22;62992;52.052;8.550;2023-06-22T06:07:41;20.80;99.90
74513;DHT22;62992;52.052;8.550;2023-06-22T06:10:24;20.70;99.90
74513;DHT22;62992;52.052;8.550;2023-06-22T06:13:09;21.30;99.90
74513;DHT22;62992;52.052;8.550;2023-06-22T06:15:53;21.90;99.90
74513;DHT22;62992;52.052;8.550;2023-06-22T06:18:40;22.60;99.90
74513;DHT22;62992;52.052;8.550;2023-06-22T06:21:25;22.50;99.90
74513;DHT22;62992;52.052;8.550;2023-06-22T06:24:09;21.90;99.90
74513;DHT22;62992;52.052;8.550;2023-06-22T06:26:53;21.30;99.90
74513;DHT22;62992;52.052;8.550;2023-06-22T06:29:37;21.00;99.90
74513;DHT22;62992;52.052;8.550;2023-06-22T06:32:22;21.60;99.90
74513;DHT22;62992;52.052;8.550;2023-06-22T06:35:06;21.40;99.90
74513;DHT22;62992;52.052;8.550;2023-06-22T06:37:51;21.20;99.90
74513;DHT22;62992;52.052;8.550;2023-06-22T06:40:35;21.50;99.90
74513;DHT22;62992;52.052;8.550;2023-06-22T06:43:19;21.70;99.90
74513;DHT22;62992;52.052;8.550;2023-06-22T06:46:03;21.90;99.90
74513;DHT22;62992;52.052;8.550;2023-06-22T06:48:47;21.80;99.90
74513;DHT22;62992;52.052;8.550;2023-06-22T06:51:31;21.70;99.90
74513;DHT22;62992;52.052;8.550;2023-06-22T06:54:16;21.60;99.90
74513;DHT22;62992;52.052;8.550;2023-06-22T06:57:00;21.40;99.90
74513;DHT22;62992;52.052;8.550;2023-06-22T06:59:47;21.40;99.90
74513;DHT22;62992;52.052;8.550;2023-06-22T07:02:31;21.30;99.90
74513;DHT22;62992;52.052;8.550;2023-06-22T07:05:15;21.20;99.90
74513;DHT22;62992;52.052;8.550;2023-06-22T07:07:59;21.20;99.90
74513;DHT22;62992;52.052;8.550;2023-06-22T07:10:43;21.10;99.90
74513;DHT22;62992;52.052;8.550;2023-06-22T07:13:27;21.10;99.90
74513;DHT22;62992;52.052;8.550;2023-06-22T07:16:11;21.10;99.90
74513;DHT22;62992;52.052;8.550;2023-06-22T07:18:56;21.00;99.90
74513;DHT22;62992;52.052;8.550;2023-06-22T07:21:40;20.90;99.90
74513;DHT22;62992;52.052;8.550;2023-06-22T07:24:24;20.90;99.90
74513;DHT22;62992;52.052;8.550;2023-06-22T07:27:08;20.90;99.90
74513;DHT22;62992;52.052;8.550;2023-06-22T07:29:54;20.90;99.90
74513;DHT22;62992;52.052;8.550;2023-06-22T07:32:39;20.90;99.90
74513;DHT22;62992;52.052;8.550;2023-06-22T07:35:23;21.00;99.90
74513;DHT22;62992;52.052;8.550;2023-06-22T07:38:07;20.90;99.90
74513;DHT22;62992;52.052;8.550;2023-06-22T07:40:53;20.90;99.90
74513;DHT22;62992;52.052;8.550;2023-06-22T07:43:37;21.00;99.90
74513;DHT22;62992;52.052;8.550;2023-06-22T07:46:21;21.00;99.90
74513;DHT22;62992;52.052;8.550;2023-06-22T07:49:05;21.00;99.90
74513;DHT22;62992;52.052;8.550;2023-06-22T07:51:51;21.10;99.90
74513;DHT22;62992;52.052;8.550;2023-06-22T07:54:36;21.30;99.90
74513;DHT22;62992;52.052;8.550;2023-06-22T07:57:20;21.30;99.90
74513;DHT22;62992;52.052;8.550;2023-06-22T08:00:05;21.30;99.90
74513;DHT22;62992;52.052;8.550;2023-06-22T08:02:59;21.30;99.90
74513;DHT22;62992;52.052;8.550;2023-06-22T08:05:43;21.40;99.90
74513;DHT22;62992;52.052;8.550;2023-06-22T08:08:27;21.30;99.90
74513;DHT22;62992;52.052;8.550;2023-06-22T08:11:11;21.20;99.90
74513;DHT22;62992;52.052;8.550;2023-06-22T08:13:55;21.30;99.90
74513;DHT22;62992;52.052;8.550;2023-06-22T08:16:42;21.40;99.90
74513;DHT22;62992;52.052;8.550;2023-06-22T08:19:26;21.50;99.90
74513;DHT22;62992;52.052;8.550;2023-06-22T08:22:10;21.50;99.90
74513;DHT22;62992;52.052;8.550;2023-06-22T08:24:54;21.60;99.90
74513;DHT22;62992;52.052;8.550;2023-06-22T08:27:38;21.60;99.90
74513;DHT22;62992;52.052;8.550;2023-06-22T08:30:23;21.70;99.90
74513;DHT22;62992;52.052;8.550;2023-06-22T08:33:07;21.80;99.90
74513;DHT22;62992;52.052;8.550;2023-06-22T08:35:51;22.00;99.90
74513;DHT22;62992;52.052;8.550;2023-06-22T08:38:35;22.40;99.90
74513;DHT22;62992;52.052;8.550;2023-06-22T08:41:20;22.90;99.90
74513;DHT22;62992;52.052;8.550;2023-06-22T08:44:04;23.70;99.90
74513;DHT22;62992;52.052;8.550;2023-06-22T08:46:48;23.80;99.90
74513;DHT22;62992;52.052;8.550;2023-06-22T08:49:32;23.60;99.90
74513;DHT22;62992;52.052;8.550;2023-06-22T08:52:17;23.20;99.90
74513;DHT22;62992;52.052;8.550;2023-06-22T08:55:02;23.10;99.90
74513;DHT22;62992;52.052;8.550;2023-06-22T08:57:46;23.30;99.90
74513;DHT22;62992;52.052;8.550;2023-06-22T09:00:30;23.50;99.90
74513;DHT22;62992;52.052;8.550;2023-06-22T09:03:16;23.30;99.90
74513;DHT22;62992;52.052;8.550;2023-06-22T09:06:00;23.30;99.90
74513;DHT22;62992;52.052;8.550;2023-06-22T09:08:44;23.30;99.90
74513;DHT22;62992;52.052;8.550;2023-06-22T09:11:30;23.50;99.90
74513;DHT22;62992;52.052;8.550;2023-06-22T09:14:14;23.40;99.90
74513;DHT22;62992;52.052;8.550;2023-06-22T09:16:58;24.20;99.90
74513;DHT22;62992;52.052;8.550;2023-06-22T09:19:42;24.70;99.90
74513;DHT22;62992;52.052;8.550;2023-06-22T09:22:27;25.20;99.90
74513;DHT22;62992;52.052;8.550;2023-06-22T09:25:13;24.70;99.90
74513;DHT22;62992;52.052;8.550;2023-06-22T09:27:57;24.40;99.90
74513;DHT22;62992;52.052;8.550;2023-06-22T09:30:43;24.70;99.90
74513;DHT22;62992;52.052;8.550;2023-06-22T09:33:28;24.40;99.90
74513;DHT22;62992;52.052;8.550;2023-06-22T09:36:12;24.20;99.90
74513;DHT22;62992;52.052;8.550;2023-06-22T09:38:56;24.00;99.90
74513;DHT22;62992;52.052;8.550;2023-06-22T09:41:42;23.90;99.90
74513;DHT22;62992;52.052;8.550;2023-06-22T09:44:26;23.90;99.90
74513;DHT22;62992;52.052;8.550;2023-06-22T09:47:11;24.00;99.90
74513;DHT22;62992;52.052;8.550;2023-06-22T09:49:55;23.90;99.90
74513;DHT22;62992;52.052;8.550;2023-06-22T09:52:39;23.80;99.90
74513;DHT22;62992;52.052;8.550;2023-06-22T09:55:23;24.00;99.90
74513;DHT22;62992;52.052;8.550;2023-06-22T09:58:08;24.30;99.90
74513;DHT22;62992;52.052;8.550;2023-06-22T10:00:52;24.40;99.90
74513;DHT22;62992;52.052;8.550;2023-06-22T10:03:38;24.50;99.90
74513;DHT22;62992;52.052;8.550;2023-06-22T10:06:22;25.10;99.90
74513;DHT22;62992;52.052;8.550;2023-06-22T10:09:07;26.10;99.90
74513;DHT22;62992;52.052;8.550;2023-06-22T10:11:51;26.40;99.90
74513;DHT22;62992;52.052;8.550;2023-06-22T10:14:36;26.50;99.90
74513;DHT22;62992;52.052;8.550;2023-06-22T10:17:20;27.50;99.90
74513;DHT22;62992;52.052;8.550;2023-06-22T10:20:05;27.10;99.90
74513;DHT22;62992;52.052;8.550;2023-06-22T10:22:55;27.40;99.90
74513;DHT22;62992;52.052;8.550;2023-06-22T10:25:39;27.10;99.90
74513;DHT22;62992;52.052;8.550;2023-06-22T10:28:23;26.90;99.90
74513;DHT22;62992;52.052;8.550;2023-06-22T10:31:08;26.00;99.90
74513;DHT22;62992;52.052;8.550;2023-06-22T10:33:53;25.80;99.90
74513;DHT22;62992;52.052;8.550;2023-06-22T10:36:38;25.70;99.90
74513;DHT22;62992;52.052;8.550;2023-06-22T10:39:22;25.40;99.90
74513;DHT22;62992;52.052;8.550;2023-06-22T10:42:06;25.70;99.90
74513;DHT22;62992;52.052;8.550;2023-06-22T10:44:50;26.30;99.90
74513;DHT22;62992;52.052;8.550;2023-06-22T10:47:34;27.10;99.90
74513;DHT22;62992;52.052;8.550;2023-06-22T10:50:18;27.70;99.90
74513;DHT22;62992;52.052;8.550;2023-06-22T10:53:04;27.90;99.90
74513;DHT22;62992;52.052;8.550;2023-06-22T10:55:48;27.70;99.90
74513;DHT22;62992;52.052;8.550;2023-06-22T10:58:33;27.20;99.90
74513;DHT22;62992;52.052;8.550;2023-06-22T11:01:17;26.40;99.90
74513;DHT22;62992;52.052;8.550;2023-06-22T11:04:01;26.30;99.90
74513;DHT22;62992;52.052;8.550;2023-06-22T11:06:45;26.00;99.90
74513;DHT22;62992;52.052;8.550;2023-06-22T11:09:29;25.80;99.90
74513;DHT22;62992;52.052;8.550;2023-06-22T11:12:13;25.80;99.90
74513;DHT22;62992;52.052;8.550;2023-06-22T11:14:58;25.90;99.90
74513;DHT22;62992;52.052;8.550;2023-06-22T11:17:42;25.90;99.90
74513;DHT22;62992;52.052;8.550;2023-06-22T11:20:26;25.80;99.90
74513;DHT22;62992;52.052;8.550;2023-06-22T11:23:10;25.70;99.90
74513;DHT22;62992;52.052;8.550;2023-06-22T11:25:56;26.10;99.90
74513;DHT22;62992;52.052;8.550;2023-06-22T11:28:40;26.30;99.90
74513;DHT22;62992;52.052;8.550;2023-06-22T11:31:24;26.30;99.90
74513;DHT22;62992;52.052;8.550;2023-06-22T11:34:08;26.40;99.90
74513;DHT22;62992;52.052;8.550;2023-06-22T11:36:52;26.80;99.90
74513;DHT22;62992;52.052;8.550;2023-06-22T11:39:37;26.80;99.90
74513;DHT22;62992;52.052;8.550;2023-06-22T11:42:21;26.50;99.90
74513;DHT22;62992;52.052;8.550;2023-06-22T11:45:07;26.30;99.90
74513;DHT22;62992;52.052;8.550;2023-06-22T11:47:51;26.10;99.90
74513;DHT22;62992;52.052;8.550;2023-06-22T11:50:35;26.00;99.90
74513;DHT22;62992;52.052;8.550;2023-06-22T11:53:20;26.00;99.90
74513;DHT22;62992;52.052;8.550;2023-06-22T11:56:05;25.80;99.90
74513;DHT22;62992;52.052;8.550;2023-06-22T11:58:49;25.60;99.90
74513;DHT22;62992;52.052;8.550;2023-06-22T12:01:33;25.50;99.90
74513;DHT22;62992;52.052;8.550;2023-06-22T12:04:17;25.50;99.90
74513;DHT22;62992;52.052;8.550;2023-06-22T12:07:01;25.60;99.90
74513;DHT22;62992;52.052;8.550;2023-06-22T12:09:46;25.40;99.90
74513;DHT22;62992;52.052;8.550;2023-06-22T12:12:30;25.60;99.90
74513;DHT22;62992;52.052;8.550;2023-06-22T12:15:14;25.70;99.90
74513;DHT22;62992;52.052;8.550;2023-06-22T12:17:59;25.50;99.90
74513;DHT22;62992;52.052;8.550;2023-06-22T12:20:43;25.40;99.90
74513;DHT22;62992;52.052;8.550;2023-06-22T12:23:27;25.30;99.90
74513;DHT22;62992;52.052;8.550;2023-06-22T12:26:11;25.10;99.90
74513;DHT22;62992;52.052;8.550;2023-06-22T12:28:55;25.00;99.90
74513;DHT22;62992;52.052;8.550;2023-06-22T12:31:39;24.90;99.90
74513;DHT22;62992;52.052;8.550;2023-06-22T12:34:24;24.80;99.90
74513;DHT22;62992;52.052;8.550;2023-06-22T12:37:08;24.60;99.90
74513;DHT22;62992;52.052;8.550;2023-06-22T12:39:53;24.40;99.90
74513;DHT22;62992;52.052;8.550;2023-06-22T12:42:37;24.20;99.90
74513;DHT22;62992;52.052;8.550;2023-06-22T12:45:21;23.90;99.90
74513;DHT22;62992;52.052;8.550;2023-06-22T12:48:05;23.80;99.90
74513;DHT22;62992;52.052;8.550;2023-06-22T12:50:50;23.70;99.90
74513;DHT22;62992;52.052;8.550;2023-06-22T12:53:34;23.70;99.90
74513;DHT22;62992;52.052;8.550;2023-06-22T12:56:18;23.50;99.90
74513;DHT22;62992;52.052;8.550;2023-06-22T12:59:03;23.40;99.90
74513;DHT22;62992;52.052;8.550;2023-06-22T13:01:47;23.40;99.90
74513;DHT22;62992;52.052;8.550;2023-06-22T13:04:31;23.40;99.90
74513;DHT22;62992;52.052;8.550;2023-06-22T13:07:16;23.30;99.90
74513;DHT22;62992;52.052;8.550;2023-06-22T13:10:00;23.20;99.90
74513;DHT22;62992;52.052;8.550;2023-06-22T13:12:44;23.30;99.90
74513;DHT22;62992;52.052;8.550;2023-06-22T13:15:28;23.20;99.90
74513;DHT22;62992;52.052;8.550;2023-06-22T13:18:12;23.20;99.90
74513;DHT22;62992;52.052;8.550;2023-06-22T13:20:57;23.10;99.90
74513;DHT22;62992;52.052;8.550;2023-06-22T13:23:41;23.10;99.90
74513;DHT22;62992;52.052;8.550;2023-06-22T13:26:26;23.00;99.90
74513;DHT22;62992;52.052;8.550;2023-06-22T13:29:12;22.80;99.90
74513;DHT22;62992;52.052;8.550;2023-06-22T13:31:56;22.80;99.90
74513;DHT22;62992;52.052;8.550;2023-06-22T13:34:41;22.70;99.90
74513;DHT22;62992;52.052;8.550;2023-06-22T13:37:26;22.70;99.90
74513;DHT22;62992;52.052;8.550;2023-06-22T13:40:10;22.60;99.90
74513;DHT22;62992;52.052;8.550;2023-06-22T13:42:55;22.50;99.90
74513;DHT22;62992;52.052;8.550;2023-06-22T13:45:39;22.40;99.90
74513;DHT22;62992;52.052;8.550;2023-06-22T13:48:23;22.40;99.90
74513;DHT22;62992;52.052;8.550;2023-06-22T13:51:09;22.30;99.90
74513;DHT22;62992;52.052;8.550;2023-06-22T13:53:53;22.20;99.90
74513;DHT22;62992;52.052;8.550;2023-06-22T13:56:37;22.00;99.90
74513;DHT22;62992;52.052;8.550;2023-06-22T13:59:21;21.90;99.90
74513;DHT22;62992;52.052;8.550;2023-06-22T14:02:06;21.80;99.90
74513;DHT22;62992;52.052;8.550;2023-06-22T14:04:50;21.80;99.90
74513;DHT22;62992;52.052;8.550;2023-06-22T14:07:34;21.80;99.90
74513;DHT22;62992;52.052;8.550;2023-06-22T14:10:18;21.70;99.90
74513;DHT22;62992;52.052;8.550;2023-06-22T14:13:03;21.60;99.90
74513;DHT22;62992;52.052;8.550;2023-06-22T14:15:49;21.60;99.90
74513;DHT22;62992;52.052;8.550;2023-06-22T14:18:36;21.40;99.90
74513;DHT22;62992;52.052;8.550;2023-06-22T14:21:20;21.20;99.90
74513;DHT22;62992;52.052;8.550;2023-06-22T14:24:04;21.10;99.90
74513;DHT22;62992;52.052;8.550;2023-06-22T14:26:48;21.00;99.90
74513;DHT22;62992;52.052;8.550;2023-06-22T14:29:32;21.00;99.90
74513;DHT22;62992;52.052;8.550;2023-06-22T14:32:17;20.90;99.90
74513;DHT22;62992;52.052;8.550;2023-06-22T14:35:01;20.80;99.90
74513;DHT22;62992;52.052;8.550;2023-06-22T14:37:45;20.70;99.90
74513;DHT22;62992;52.052;8.550;2023-06-22T14:40:29;20.70;99.90
74513;DHT22;62992;52.052;8.550;2023-06-22T14:43:13;20.70;99.90
74513;DHT22;62992;52.052;8.550;2023-06-22T14:45:58;20.70;99.90
74513;DHT22;62992;52.052;8.550;2023-06-22T14:48:42;20.70;99.90
74513;DHT22;62992;52.052;8.550;2023-06-22T14:51:26;20.60;99.90
74513;DHT22;62992;52.052;8.550;2023-06-22T14:54:11;20.60;99.90
74513;DHT22;62992;52.052;8.550;2023-06-22T14:56:55;20.60;99.90
74513;DHT22;62992;52.052;8.550;2023-06-22T14:59:39;20.60;99.90
74513;DHT22;62992;52.052;8.550;2023-06-22T15:02:23;20.60;99.90
74513;DHT22;62992;52.052;8.550;2023-06-22T15:05:07;20.70;99.90
74513;DHT22;62992;52.052;8.550;2023-06-22T15:07:51;20.70;99.90
74513;DHT22;62992;52.052;8.550;2023-06-22T15:10:36;20.70;99.90
74513;DHT22;62992;52.052;8.550;2023-06-22T15:13:20;20.70;99.90
74513;DHT22;62992;52.052;8.550;2023-06-22T15:16:06;20.80;99.90
74513;DHT22;62992;52.052;8.550;2023-06-22T15:18:50;20.90;99.90
74513;DHT22;62992;52.052;8.550;2023-06-22T15:21:34;21.00;99.90
74513;DHT22;62992;52.052;8.550;2023-06-22T15:24:18;21.10;99.90
74513;DHT22;62992;52.052;8.550;2023-06-22T15:27:03;21.20;99.90
74513;DHT22;62992;52.052;8.550;2023-06-22T15:29:47;21.30;99.90
74513;DHT22;62992;52.052;8.550;2023-06-22T15:32:31;21.40;99.90
74513;DHT22;62992;52.052;8.550;2023-06-22T15:35:15;21.30;99.90
74513;DHT22;62992;52.052;8.550;2023-06-22T15:38:02;21.30;99.90
74513;DHT22;62992;52.052;8.550;2023-06-22T15:40:46;21.40;99.90
74513;DHT22;62992;52.052;8.550;2023-06-22T15:43:30;21.40;99.90
74513;DHT22;62992;52.052;8.550;2023-06-22T15:46:14;21.50;99.90
74513;DHT22;62992;52.052;8.550;2023-06-22T15:49:01;21.60;99.90
74513;DHT22;62992;52.052;8.550;2023-06-22T15:51:45;21.70;99.90
74513;DHT22;62992;52.052;8.550;2023-06-22T15:54:29;21.70;99.90
74513;DHT22;62992;52.052;8.550;2023-06-22T15:57:13;21.70;99.90
74513;DHT22;62992;52.052;8.550;2023-06-22T15:59:57;21.50;99.90
74513;DHT22;62992;52.052;8.550;2023-06-22T16:02:42;21.50;99.90
74513;DHT22;62992;52.052;8.550;2023-06-22T16:05:26;21.40;99.90
74513;DHT22;62992;52.052;8.550;2023-06-22T16:08:10;21.50;99.90
74513;DHT22;62992;52.052;8.550;2023-06-22T16:10:55;21.50;99.90
74513;DHT22;62992;52.052;8.550;2023-06-22T16:13:39;21.40;99.90
74513;DHT22;62992;52.052;8.550;2023-06-22T16:16:24;21.40;99.90
74513;DHT22;62992;52.052;8.550;2023-06-22T16:19:08;21.40;99.90
74513;DHT22;62992;52.052;8.550;2023-06-22T16:21:52;21.40;99.90
74513;DHT22;62992;52.052;8.550;2023-06-22T16:24:36;21.30;99.90
74513;DHT22;62992;52.052;8.550;2023-06-22T16:27:20;21.30;99.90
74513;DHT22;62992;52.052;8.550;2023-06-22T16:30:08;21.20;99.90
74513;DHT22;62992;52.052;8.550;2023-06-22T16:32:56;21.10;99.90
74513;DHT22;62992;52.052;8.550;2023-06-22T16:35:42;21.10;99.90
74513;DHT22;62992;52.052;8.550;2023-06-22T16:38:27;21.00;99.90
74513;DHT22;62992;52.052;8.550;2023-06-22T16:41:13;21.00;99.90
74513;DHT22;62992;52.052;8.550;2023-06-22T16:43:58;21.00;99.90
74513;DHT22;62992;52.052;8.550;2023-06-22T16:46:48;20.90;99.90
74513;DHT22;62992;52.052;8.550;2023-06-22T16:49:32;20.80;99.90
74513;DHT22;62992;52.052;8.550;2023-06-22T16:52:17;20.80;99.90
74513;DHT22;62992;52.052;8.550;2023-06-22T16:55:01;20.80;99.90
74513;DHT22;62992;52.052;8.550;2023-06-22T16:57:45;20.70;99.90
74513;DHT22;62992;52.052;8.550;2023-06-22T17:00:32;20.80;99.90
74513;DHT22;62992;52.052;8.550;2023-06-22T17:03:22;20.70;99.90
74513;DHT22;62992;52.052;8.550;2023-06-22T17:06:06;20.80;99.90
74513;DHT22;62992;52.052;8.550;2023-06-22T17:08:50;20.80;99.90
74513;DHT22;62992;52.052;8.550;2023-06-22T17:11:35;20.80;99.90
74513;DHT22;62992;52.052;8.550;2023-06-22T17:14:19;20.80;99.90
74513;DHT22;62992;52.052;8.550;2023-06-22T17:17:03;20.70;99.90
74513;DHT22;62992;52.052;8.550;2023-06-22T17:19:48;20.70;99.90
74513;DHT22;62992;52.052;8.550;2023-06-22T17:22:32;20.50;99.90
74513;DHT22;62992;52.052;8.550;2023-06-22T17:25:19;20.40;99.90